sensor_id;sensor_type;location;lat;lon;timestamp;P1;durP1;ratioP1;P2;durP2;ratioP2
70780;SDS011;59514;48.810;2.134;2022-07-24T00:02:16;10.10;;;9.20;;
70780;SDS011;59514;48.810;2.134;2022-07-24T00:04:42;9.95;;;9.05;;
70780;SDS011;59514;48.810;2.134;2022-07-24T00:07:07;10.43;;;9.00;;
70780;SDS011;59514;48.810;2.134;2022-07-24T00:09:32;10.35;;;8.93;;
70780;SDS011;59514;48.810;2.134;2022-07-24T00:11:58;13.00;;;9.30;;
70780;SDS011;59514;48.810;2.134;2022-07-24T00:14:24;10.10;;;9.05;;
70780;SDS011;59514;48.810;2.134;2022-07-24T00:16:49;12.27;;;9.43;;
70780;SDS011;59514;48.810;2.134;2022-07-24T00:19:15;9.80;;;8.80;;
70780;SDS011;59514;48.810;2.134;2022-07-24T00:21:40;9.07;;;8.27;;
70780;SDS011;59514;48.810;2.134;2022-07-24T00:24:06;9.43;;;8.63;;
70780;SDS011;59514;48.810;2.134;2022-07-24T00:26:31;9.77;;;8.77;;
70780;SDS011;59514;48.810;2.134;2022-07-24T00:28:57;9.90;;;8.90;;
70780;SDS011;59514;48.810;2.134;2022-07-24T00:31:22;8.90;;;8.13;;
70780;SDS011;59514;48.810;2.134;2022-07-24T00:33:47;9.57;;;8.70;;
70780;SDS011;59514;48.810;2.134;2022-07-24T00:36:13;10.23;;;9.10;;
70780;SDS011;59514;48.810;2.134;2022-07-24T00:38:40;9.50;;;8.55;;
70780;SDS011;59514;48.810;2.134;2022-07-24T00:41:05;9.63;;;8.80;;
70780;SDS011;59514;48.810;2.134;2022-07-24T00:43:30;9.23;;;8.27;;
70780;SDS011;59514;48.810;2.134;2022-07-24T00:45:56;9.80;;;8.55;;
70780;SDS011;59514;48.810;2.134;2022-07-24T00:48:22;10.52;;;8.45;;
70780;SDS011;59514;48.810;2.134;2022-07-24T00:50:47;8.88;;;7.97;;
70780;SDS011;59514;48.810;2.134;2022-07-24T00:53:13;9.45;;;8.45;;
70780;SDS011;59514;48.810;2.134;2022-07-24T00:55:39;9.60;;;8.20;;
70780;SDS011;59514;48.810;2.134;2022-07-24T00:58:05;10.35;;;8.27;;
70780;SDS011;59514;48.810;2.134;2022-07-24T01:00:31;9.70;;;8.35;;
70780;SDS011;59514;48.810;2.134;2022-07-24T01:02:56;9.68;;;8.75;;
70780;SDS011;59514;48.810;2.134;2022-07-24T01:05:22;9.73;;;8.52;;
70780;SDS011;59514;48.810;2.134;2022-07-24T01:07:47;9.95;;;7.90;;
70780;SDS011;59514;48.810;2.134;2022-07-24T01:10:13;9.82;;;8.82;;
70780;SDS011;59514;48.810;2.134;2022-07-24T01:12:39;9.75;;;8.82;;
70780;SDS011;59514;48.810;2.134;2022-07-24T01:15:06;10.00;;;8.73;;
70780;SDS011;59514;48.810;2.134;2022-07-24T01:17:34;9.20;;;8.30;;
70780;SDS011;59514;48.810;2.134;2022-07-24T01:20:01;9.77;;;8.90;;
70780;SDS011;59514;48.810;2.134;2022-07-24T01:22:29;11.18;;;9.35;;
70780;SDS011;59514;48.810;2.134;2022-07-24T01:24:54;10.30;;;9.23;;
70780;SDS011;59514;48.810;2.134;2022-07-24T01:27:21;11.30;;;9.00;;
70780;SDS011;59514;48.810;2.134;2022-07-24T01:29:47;10.15;;;9.10;;
70780;SDS011;59514;48.810;2.134;2022-07-24T01:32:13;10.82;;;9.65;;
70780;SDS011;59514;48.810;2.134;2022-07-24T01:34:38;12.57;;;10.38;;
70780;SDS011;59514;48.810;2.134;2022-07-24T01:37:03;10.70;;;9.60;;
70780;SDS011;59514;48.810;2.134;2022-07-24T01:39:29;11.10;;;9.48;;
70780;SDS011;59514;48.810;2.134;2022-07-24T01:41:54;10.55;;;9.07;;
70780;SDS011;59514;48.810;2.134;2022-07-24T01:44:19;11.00;;;9.52;;
70780;SDS011;59514;48.810;2.134;2022-07-24T01:46:45;11.43;;;9.73;;
70780;SDS011;59514;48.810;2.134;2022-07-24T01:49:11;11.85;;;10.65;;
70780;SDS011;59514;48.810;2.134;2022-07-24T01:51:36;11.45;;;10.25;;
70780;SDS011;59514;48.810;2.134;2022-07-24T01:54:02;10.02;;;9.00;;
70780;SDS011;59514;48.810;2.134;2022-07-24T01:56:28;12.50;;;9.70;;
70780;SDS011;59514;48.810;2.134;2022-07-24T01:58:54;10.82;;;9.40;;
70780;SDS011;59514;48.810;2.134;2022-07-24T02:01:19;10.57;;;9.27;;
70780;SDS011;59514;48.810;2.134;2022-07-24T02:03:45;11.73;;;10.18;;
70780;SDS011;59514;48.810;2.134;2022-07-24T02:06:10;10.35;;;9.32;;
70780;SDS011;59514;48.810;2.134;2022-07-24T02:08:35;13.65;;;9.25;;
70780;SDS011;59514;48.810;2.134;2022-07-24T02:11:01;10.65;;;9.25;;
70780;SDS011;59514;48.810;2.134;2022-07-24T02:13:26;10.93;;;9.57;;
70780;SDS011;59514;48.810;2.134;2022-07-24T02:15:52;10.57;;;9.55;;
70780;SDS011;59514;48.810;2.134;2022-07-24T02:18:18;12.38;;;9.70;;
70780;SDS011;59514;48.810;2.134;2022-07-24T02:20:43;11.13;;;9.07;;
70780;SDS011;59514;48.810;2.134;2022-07-24T02:23:09;10.30;;;9.30;;
70780;SDS011;59514;48.810;2.134;2022-07-24T02:25:34;10.57;;;9.57;;
70780;SDS011;59514;48.810;2.134;2022-07-24T02:27:59;11.23;;;10.02;;
70780;SDS011;59514;48.810;2.134;2022-07-24T02:30:25;10.13;;;9.20;;
70780;SDS011;59514;48.810;2.134;2022-07-24T02:32:50;11.63;;;10.43;;
70780;SDS011;59514;48.810;2.134;2022-07-24T02:35:16;14.95;;;10.10;;
70780;SDS011;59514;48.810;2.134;2022-07-24T02:37:42;10.90;;;9.90;;
70780;SDS011;59514;48.810;2.134;2022-07-24T02:40:10;10.98;;;9.85;;
70780;SDS011;59514;48.810;2.134;2022-07-24T02:42:37;10.95;;;9.85;;
70780;SDS011;59514;48.810;2.134;2022-07-24T02:45:04;11.45;;;9.43;;
70780;SDS011;59514;48.810;2.134;2022-07-24T02:47:30;10.73;;;9.55;;
70780;SDS011;59514;48.810;2.134;2022-07-24T02:49:56;10.80;;;9.65;;
70780;SDS011;59514;48.810;2.134;2022-07-24T02:52:22;11.15;;;10.05;;
70780;SDS011;59514;48.810;2.134;2022-07-24T02:54:47;10.65;;;9.55;;
70780;SDS011;59514;48.810;2.134;2022-07-24T02:57:13;12.23;;;11.05;;
70780;SDS011;59514;48.810;2.134;2022-07-24T02:59:38;11.60;;;10.40;;
70780;SDS011;59514;48.810;2.134;2022-07-24T03:02:03;11.38;;;10.35;;
70780;SDS011;59514;48.810;2.134;2022-07-24T03:04:29;11.85;;;9.80;;
70780;SDS011;59514;48.810;2.134;2022-07-24T03:06:54;10.68;;;9.63;;
70780;SDS011;59514;48.810;2.134;2022-07-24T03:09:20;10.23;;;9.25;;
70780;SDS011;59514;48.810;2.134;2022-07-24T03:11:45;10.55;;;9.18;;
70780;SDS011;59514;48.810;2.134;2022-07-24T03:14:10;11.30;;;9.32;;
70780;SDS011;59514;48.810;2.134;2022-07-24T03:16:36;11.63;;;9.82;;
70780;SDS011;59514;48.810;2.134;2022-07-24T03:19:02;11.00;;;9.98;;
70780;SDS011;59514;48.810;2.134;2022-07-24T03:21:27;11.07;;;10.07;;
70780;SDS011;59514;48.810;2.134;2022-07-24T03:23:53;11.18;;;9.93;;
70780;SDS011;59514;48.810;2.134;2022-07-24T03:26:18;11.13;;;9.93;;
70780;SDS011;59514;48.810;2.134;2022-07-24T03:28:43;10.65;;;9.57;;
70780;SDS011;59514;48.810;2.134;2022-07-24T03:31:09;10.63;;;9.68;;
70780;SDS011;59514;48.810;2.134;2022-07-24T03:33:34;10.35;;;9.35;;
70780;SDS011;59514;48.810;2.134;2022-07-24T03:35:59;10.38;;;9.38;;
70780;SDS011;59514;48.810;2.134;2022-07-24T03:38:25;10.45;;;9.43;;
70780;SDS011;59514;48.810;2.134;2022-07-24T03:40:51;10.02;;;9.02;;
70780;SDS011;59514;48.810;2.134;2022-07-24T03:43:16;11.00;;;9.90;;
70780;SDS011;59514;48.810;2.134;2022-07-24T03:45:41;10.52;;;9.60;;
70780;SDS011;59514;48.810;2.134;2022-07-24T03:48:08;10.57;;;9.48;;
70780;SDS011;59514;48.810;2.134;2022-07-24T03:50:34;10.15;;;8.93;;
70780;SDS011;59514;48.810;2.134;2022-07-24T03:52:59;10.27;;;9.35;;
70780;SDS011;59514;48.810;2.134;2022-07-24T03:55:24;9.93;;;8.93;;
70780;SDS011;59514;48.810;2.134;2022-07-24T03:57:49;11.85;;;9.25;;
70780;SDS011;59514;48.810;2.134;2022-07-24T04:00:15;10.43;;;9.50;;
70780;SDS011;59514;48.810;2.134;2022-07-24T04:02:40;11.07;;;9.90;;
70780;SDS011;59514;48.810;2.134;2022-07-24T04:05:06;11.88;;;10.00;;
70780;SDS011;59514;48.810;2.134;2022-07-24T04:07:34;11.07;;;9.85;;
70780;SDS011;59514;48.810;2.134;2022-07-24T04:10:00;10.55;;;9.52;;
70780;SDS011;59514;48.810;2.134;2022-07-24T04:12:26;10.27;;;9.27;;
70780;SDS011;59514;48.810;2.134;2022-07-24T04:14:51;10.27;;;9.10;;
70780;SDS011;59514;48.810;2.134;2022-07-24T04:17:16;13.32;;;10.02;;
70780;SDS011;59514;48.810;2.134;2022-07-24T04:19:42;10.93;;;9.27;;
70780;SDS011;59514;48.810;2.134;2022-07-24T04:22:08;11.32;;;9.68;;
70780;SDS011;59514;48.810;2.134;2022-07-24T04:24:33;11.85;;;9.10;;
70780;SDS011;59514;48.810;2.134;2022-07-24T04:26:59;9.82;;;8.82;;
70780;SDS011;59514;48.810;2.134;2022-07-24T04:29:24;10.35;;;9.43;;
70780;SDS011;59514;48.810;2.134;2022-07-24T04:31:49;9.52;;;8.75;;
70780;SDS011;59514;48.810;2.134;2022-07-24T04:34:15;10.25;;;9.25;;
70780;SDS011;59514;48.810;2.134;2022-07-24T04:36:40;10.23;;;9.23;;
70780;SDS011;59514;48.810;2.134;2022-07-24T04:39:05;10.07;;;8.82;;
70780;SDS011;59514;48.810;2.134;2022-07-24T04:41:31;10.00;;;8.73;;
70780;SDS011;59514;48.810;2.134;2022-07-24T04:43:56;10.73;;;9.27;;
70780;SDS011;59514;48.810;2.134;2022-07-24T04:46:21;9.20;;;8.32;;
70780;SDS011;59514;48.810;2.134;2022-07-24T04:48:47;10.02;;;9.05;;
70780;SDS011;59514;48.810;2.134;2022-07-24T04:51:12;9.70;;;8.68;;
70780;SDS011;59514;48.810;2.134;2022-07-24T04:53:38;10.85;;;9.20;;
70780;SDS011;59514;48.810;2.134;2022-07-24T04:56:03;10.23;;;8.95;;
70780;SDS011;59514;48.810;2.134;2022-07-24T04:58:29;9.18;;;8.32;;
70780;SDS011;59514;48.810;2.134;2022-07-24T05:00:54;10.07;;;9.07;;
70780;SDS011;59514;48.810;2.134;2022-07-24T05:03:19;12.43;;;8.55;;
70780;SDS011;59514;48.810;2.134;2022-07-24T05:05:45;10.82;;;9.13;;
70780;SDS011;59514;48.810;2.134;2022-07-24T05:08:10;10.07;;;9.02;;
70780;SDS011;59514;48.810;2.134;2022-07-24T05:10:36;10.15;;;9.10;;
70780;SDS011;59514;48.810;2.134;2022-07-24T05:13:01;9.85;;;8.88;;
70780;SDS011;59514;48.810;2.134;2022-07-24T05:15:27;10.18;;;9.02;;
70780;SDS011;59514;48.810;2.134;2022-07-24T05:17:52;9.77;;;8.80;;
70780;SDS011;59514;48.810;2.134;2022-07-24T05:20:17;10.50;;;9.52;;
70780;SDS011;59514;48.810;2.134;2022-07-24T05:22:43;9.73;;;8.82;;
70780;SDS011;59514;48.810;2.134;2022-07-24T05:25:08;10.27;;;7.95;;
70780;SDS011;59514;48.810;2.134;2022-07-24T05:27:34;10.85;;;8.73;;
70780;SDS011;59514;48.810;2.134;2022-07-24T05:29:59;9.85;;;8.35;;
70780;SDS011;59514;48.810;2.134;2022-07-24T05:32:25;10.05;;;8.38;;
70780;SDS011;59514;48.810;2.134;2022-07-24T05:34:50;10.00;;;8.70;;
70780;SDS011;59514;48.810;2.134;2022-07-24T05:37:15;9.25;;;8.00;;
70780;SDS011;59514;48.810;2.134;2022-07-24T05:39:41;9.68;;;7.95;;
70780;SDS011;59514;48.810;2.134;2022-07-24T05:42:06;8.55;;;7.70;;
70780;SDS011;59514;48.810;2.134;2022-07-24T05:44:31;9.48;;;8.00;;
70780;SDS011;59514;48.810;2.134;2022-07-24T05:46:57;9.98;;;7.70;;
70780;SDS011;59514;48.810;2.134;2022-07-24T05:49:22;9.05;;;7.70;;
70780;SDS011;59514;48.810;2.134;2022-07-24T05:51:47;7.93;;;7.18;;
70780;SDS011;59514;48.810;2.134;2022-07-24T05:54:13;9.23;;;8.18;;
70780;SDS011;59514;48.810;2.134;2022-07-24T05:56:38;9.57;;;7.93;;
70780;SDS011;59514;48.810;2.134;2022-07-24T05:59:03;7.70;;;7.03;;
70780;SDS011;59514;48.810;2.134;2022-07-24T06:01:29;8.35;;;7.55;;
70780;SDS011;59514;48.810;2.134;2022-07-24T06:03:54;8.85;;;7.68;;
70780;SDS011;59514;48.810;2.134;2022-07-24T06:06:20;8.10;;;7.40;;
70780;SDS011;59514;48.810;2.134;2022-07-24T06:08:45;8.80;;;7.25;;
70780;SDS011;59514;48.810;2.134;2022-07-24T06:11:11;8.50;;;7.80;;
70780;SDS011;59514;48.810;2.134;2022-07-24T06:13:36;8.60;;;7.75;;
70780;SDS011;59514;48.810;2.134;2022-07-24T06:16:01;8.43;;;7.57;;
70780;SDS011;59514;48.810;2.134;2022-07-24T06:18:27;9.13;;;7.80;;
70780;SDS011;59514;48.810;2.134;2022-07-24T06:20:52;8.05;;;7.22;;
70780;SDS011;59514;48.810;2.134;2022-07-24T06:23:18;7.85;;;7.07;;
70780;SDS011;59514;48.810;2.134;2022-07-24T06:25:43;8.10;;;7.20;;
70780;SDS011;59514;48.810;2.134;2022-07-24T06:28:08;11.20;;;7.75;;
70780;SDS011;59514;48.810;2.134;2022-07-24T06:30:34;7.95;;;7.20;;
70780;SDS011;59514;48.810;2.134;2022-07-24T06:32:59;8.18;;;7.40;;
70780;SDS011;59514;48.810;2.134;2022-07-24T06:35:25;9.00;;;7.63;;
70780;SDS011;59514;48.810;2.134;2022-07-24T06:37:52;8.85;;;7.90;;
70780;SDS011;59514;48.810;2.134;2022-07-24T06:40:18;11.82;;;8.73;;
70780;SDS011;59514;48.810;2.134;2022-07-24T06:42:44;10.93;;;8.60;;
70780;SDS011;59514;48.810;2.134;2022-07-24T06:45:11;9.48;;;8.45;;
70780;SDS011;59514;48.810;2.134;2022-07-24T06:47:37;10.68;;;8.77;;
70780;SDS011;59514;48.810;2.134;2022-07-24T06:50:02;9.93;;;8.98;;
70780;SDS011;59514;48.810;2.134;2022-07-24T06:52:28;8.93;;;8.07;;
70780;SDS011;59514;48.810;2.134;2022-07-24T06:54:53;9.77;;;8.60;;
70780;SDS011;59514;48.810;2.134;2022-07-24T06:57:19;10.20;;;9.20;;
70780;SDS011;59514;48.810;2.134;2022-07-24T06:59:44;9.82;;;8.85;;
70780;SDS011;59514;48.810;2.134;2022-07-24T07:02:10;10.45;;;9.45;;
70780;SDS011;59514;48.810;2.134;2022-07-24T07:04:36;10.23;;;9.27;;
70780;SDS011;59514;48.810;2.134;2022-07-24T07:07:01;10.25;;;9.20;;
70780;SDS011;59514;48.810;2.134;2022-07-24T07:09:27;10.18;;;9.00;;
70780;SDS011;59514;48.810;2.134;2022-07-24T07:11:53;10.27;;;9.02;;
70780;SDS011;59514;48.810;2.134;2022-07-24T07:14:19;10.98;;;9.35;;
70780;SDS011;59514;48.810;2.134;2022-07-24T07:16:44;10.23;;;9.25;;
70780;SDS011;59514;48.810;2.134;2022-07-24T07:19:09;10.52;;;9.45;;
70780;SDS011;59514;48.810;2.134;2022-07-24T07:21:35;11.02;;;10.02;;
70780;SDS011;59514;48.810;2.134;2022-07-24T07:24:01;11.07;;;9.98;;
70780;SDS011;59514;48.810;2.134;2022-07-24T07:26:27;11.75;;;10.55;;
70780;SDS011;59514;48.810;2.134;2022-07-24T07:28:52;11.13;;;10.13;;
70780;SDS011;59514;48.810;2.134;2022-07-24T07:31:18;11.25;;;10.15;;
70780;SDS011;59514;48.810;2.134;2022-07-24T07:33:43;10.95;;;9.95;;
70780;SDS011;59514;48.810;2.134;2022-07-24T07:36:08;11.15;;;9.73;;
70780;SDS011;59514;48.810;2.134;2022-07-24T07:38:34;10.68;;;9.70;;
70780;SDS011;59514;48.810;2.134;2022-07-24T07:41:02;10.48;;;9.45;;
70780;SDS011;59514;48.810;2.134;2022-07-24T07:43:28;9.55;;;8.65;;
70780;SDS011;59514;48.810;2.134;2022-07-24T07:45:53;10.40;;;9.50;;
70780;SDS011;59514;48.810;2.134;2022-07-24T07:48:19;10.52;;;8.98;;
70780;SDS011;59514;48.810;2.134;2022-07-24T07:50:44;11.63;;;9.82;;
70780;SDS011;59514;48.810;2.134;2022-07-24T07:53:09;11.15;;;9.20;;
70780;SDS011;59514;48.810;2.134;2022-07-24T07:55:35;10.02;;;9.10;;
70780;SDS011;59514;48.810;2.134;2022-07-24T07:58:00;10.30;;;9.30;;
70780;SDS011;59514;48.810;2.134;2022-07-24T08:00:25;10.25;;;9.10;;
70780;SDS011;59514;48.810;2.134;2022-07-24T08:02:51;11.15;;;9.70;;
70780;SDS011;59514;48.810;2.134;2022-07-24T08:05:16;10.25;;;9.05;;
70780;SDS011;59514;48.810;2.134;2022-07-24T08:07:42;9.77;;;8.85;;
70780;SDS011;59514;48.810;2.134;2022-07-24T08:10:07;9.52;;;8.70;;
70780;SDS011;59514;48.810;2.134;2022-07-24T08:12:33;9.20;;;8.27;;
70780;SDS011;59514;48.810;2.134;2022-07-24T08:14:58;8.57;;;7.72;;
70780;SDS011;59514;48.810;2.134;2022-07-24T08:17:23;8.63;;;7.88;;
70780;SDS011;59514;48.810;2.134;2022-07-24T08:19:49;8.43;;;7.63;;
70780;SDS011;59514;48.810;2.134;2022-07-24T08:22:14;10.75;;;7.75;;
70780;SDS011;59514;48.810;2.134;2022-07-24T08:24:39;8.52;;;7.72;;
70780;SDS011;59514;48.810;2.134;2022-07-24T08:27:05;8.75;;;7.85;;
70780;SDS011;59514;48.810;2.134;2022-07-24T08:29:30;14.98;;;11.57;;
70780;SDS011;59514;48.810;2.134;2022-07-24T08:31:56;8.00;;;7.20;;
70780;SDS011;59514;48.810;2.134;2022-07-24T08:34:21;7.18;;;6.47;;
70780;SDS011;59514;48.810;2.134;2022-07-24T08:36:47;7.20;;;6.60;;
70780;SDS011;59514;48.810;2.134;2022-07-24T08:39:12;7.20;;;6.32;;
70780;SDS011;59514;48.810;2.134;2022-07-24T08:41:39;7.45;;;6.85;;
70780;SDS011;59514;48.810;2.134;2022-07-24T08:44:04;8.10;;;7.03;;
70780;SDS011;59514;48.810;2.134;2022-07-24T08:46:30;7.65;;;6.68;;
70780;SDS011;59514;48.810;2.134;2022-07-24T08:48:57;5.40;;;5.00;;
70780;SDS011;59514;48.810;2.134;2022-07-24T08:51:26;5.65;;;5.15;;
70780;SDS011;59514;48.810;2.134;2022-07-24T08:53:57;5.53;;;5.03;;
70780;SDS011;59514;48.810;2.134;2022-07-24T08:56:23;6.53;;;5.80;;
70780;SDS011;59514;48.810;2.134;2022-07-24T08:58:49;6.60;;;5.20;;
70780;SDS011;59514;48.810;2.134;2022-07-24T09:01:14;6.30;;;5.70;;
70780;SDS011;59514;48.810;2.134;2022-07-24T09:03:43;6.88;;;6.28;;
70780;SDS011;59514;48.810;2.134;2022-07-24T09:06:10;6.38;;;5.57;;
70780;SDS011;59514;48.810;2.134;2022-07-24T09:08:37;6.13;;;5.57;;
70780;SDS011;59514;48.810;2.134;2022-07-24T09:11:04;6.38;;;5.80;;
70780;SDS011;59514;48.810;2.134;2022-07-24T09:13:31;6.35;;;5.70;;
70780;SDS011;59514;48.810;2.134;2022-07-24T09:16:18;5.60;;;5.10;;
70780;SDS011;59514;48.810;2.134;2022-07-24T09:18:49;5.57;;;5.07;;
70780;SDS011;59514;48.810;2.134;2022-07-24T09:21:16;6.03;;;5.45;;
70780;SDS011;59514;48.810;2.134;2022-07-24T09:23:42;5.40;;;4.75;;
70780;SDS011;59514;48.810;2.134;2022-07-24T09:26:09;5.80;;;4.53;;
70780;SDS011;59514;48.810;2.134;2022-07-24T09:28:48;7.10;;;4.90;;
70780;SDS011;59514;48.810;2.134;2022-07-24T09:31:15;4.50;;;4.10;;
70780;SDS011;59514;48.810;2.134;2022-07-24T09:33:40;6.68;;;5.05;;
70780;SDS011;59514;48.810;2.134;2022-07-24T09:36:12;4.67;;;4.20;;
70780;SDS011;59514;48.810;2.134;2022-07-24T09:38:41;5.53;;;4.13;;
70780;SDS011;59514;48.810;2.134;2022-07-24T09:41:11;5.25;;;4.10;;
70780;SDS011;59514;48.810;2.134;2022-07-24T09:43:36;4.70;;;4.18;;
70780;SDS011;59514;48.810;2.134;2022-07-24T09:46:07;5.05;;;3.92;;
70780;SDS011;59514;48.810;2.134;2022-07-24T09:48:35;4.38;;;3.95;;
70780;SDS011;59514;48.810;2.134;2022-07-24T09:51:02;4.80;;;4.28;;
70780;SDS011;59514;48.810;2.134;2022-07-24T09:53:30;3.67;;;3.38;;
70780;SDS011;59514;48.810;2.134;2022-07-24T09:56:01;3.88;;;3.58;;
70780;SDS011;59514;48.810;2.134;2022-07-24T09:58:30;3.97;;;3.55;;
70780;SDS011;59514;48.810;2.134;2022-07-24T10:00:57;4.90;;;3.83;;
70780;SDS011;59514;48.810;2.134;2022-07-24T10:03:26;4.63;;;4.22;;
70780;SDS011;59514;48.810;2.134;2022-07-24T10:05:53;5.22;;;3.70;;
70780;SDS011;59514;48.810;2.134;2022-07-24T10:08:21;3.67;;;3.38;;
70780;SDS011;59514;48.810;2.134;2022-07-24T10:10:47;4.05;;;3.67;;
70780;SDS011;59514;48.810;2.134;2022-07-24T10:13:15;5.72;;;3.70;;
70780;SDS011;59514;48.810;2.134;2022-07-24T10:15:47;4.60;;;3.92;;
70780;SDS011;59514;48.810;2.134;2022-07-24T10:18:18;4.93;;;4.53;;
70780;SDS011;59514;48.810;2.134;2022-07-24T10:20:45;5.22;;;4.53;;
70780;SDS011;59514;48.810;2.134;2022-07-24T10:23:21;5.05;;;3.95;;
70780;SDS011;59514;48.810;2.134;2022-07-24T10:25:54;4.97;;;4.05;;
70780;SDS011;59514;48.810;2.134;2022-07-24T10:28:37;4.13;;;3.75;;
70780;SDS011;59514;48.810;2.134;2022-07-24T10:31:05;5.22;;;4.22;;
70780;SDS011;59514;48.810;2.134;2022-07-24T10:33:32;5.18;;;4.00;;
70780;SDS011;59514;48.810;2.134;2022-07-24T10:35:58;4.07;;;3.78;;
70780;SDS011;59514;48.810;2.134;2022-07-24T10:38:29;5.00;;;4.07;;
70780;SDS011;59514;48.810;2.134;2022-07-24T10:41:02;6.70;;;5.30;;
70780;SDS011;59514;48.810;2.134;2022-07-24T10:43:33;7.60;;;6.20;;
70780;SDS011;59514;48.810;2.134;2022-07-24T10:48:25;4.63;;;3.67;;
70780;SDS011;59514;48.810;2.134;2022-07-24T11:09:36;7.75;;;3.97;;
70780;SDS011;59514;48.810;2.134;2022-07-24T11:12:25;6.25;;;5.75;;
70780;SDS011;59514;48.810;2.134;2022-07-24T11:15:05;4.35;;;3.85;;
70780;SDS011;59514;48.810;2.134;2022-07-24T11:17:49;3.88;;;3.42;;
70780;SDS011;59514;48.810;2.134;2022-07-24T11:20:18;4.00;;;3.45;;
70780;SDS011;59514;48.810;2.134;2022-07-24T11:22:46;3.70;;;3.40;;
70780;SDS011;59514;48.810;2.134;2022-07-24T11:25:16;3.75;;;3.20;;
70780;SDS011;59514;48.810;2.134;2022-07-24T11:27:48;3.92;;;3.63;;
70780;SDS011;59514;48.810;2.134;2022-07-24T11:30:23;3.55;;;3.25;;
70780;SDS011;59514;48.810;2.134;2022-07-24T11:32:50;4.82;;;3.50;;
70780;SDS011;59514;48.810;2.134;2022-07-24T11:35:15;3.15;;;2.95;;
70780;SDS011;59514;48.810;2.134;2022-07-24T11:37:42;4.00;;;3.50;;
70780;SDS011;59514;48.810;2.134;2022-07-24T11:40:09;3.58;;;3.28;;
70780;SDS011;59514;48.810;2.134;2022-07-24T11:42:39;4.25;;;2.97;;
70780;SDS011;59514;48.810;2.134;2022-07-24T11:45:05;3.20;;;2.90;;
70780;SDS011;59514;48.810;2.134;2022-07-24T11:47:31;5.22;;;3.00;;
70780;SDS011;59514;48.810;2.134;2022-07-24T11:49:57;3.47;;;3.15;;
70780;SDS011;59514;48.810;2.134;2022-07-24T11:52:33;3.15;;;2.95;;
70780;SDS011;59514;48.810;2.134;2022-07-24T11:57:39;3.28;;;3.08;;
70780;SDS011;59514;48.810;2.134;2022-07-24T12:00:07;3.40;;;3.20;;
70780;SDS011;59514;48.810;2.134;2022-07-24T12:02:36;3.10;;;2.90;;
70780;SDS011;59514;48.810;2.134;2022-07-24T12:05:01;3.75;;;3.45;;
70780;SDS011;59514;48.810;2.134;2022-07-24T12:07:27;3.10;;;2.70;;
70780;SDS011;59514;48.810;2.134;2022-07-24T12:12:31;3.17;;;2.97;;
70780;SDS011;59514;48.810;2.134;2022-07-24T12:15:14;2.90;;;2.70;;
70780;SDS011;59514;48.810;2.134;2022-07-24T12:20:30;2.97;;;2.77;;
70780;SDS011;59514;48.810;2.134;2022-07-24T12:22:57;3.13;;;2.92;;
70780;SDS011;59514;48.810;2.134;2022-07-24T12:25:25;3.10;;;2.90;;
70780;SDS011;59514;48.810;2.134;2022-07-24T12:28:01;3.25;;;2.95;;
70780;SDS011;59514;48.810;2.134;2022-07-24T12:33:09;4.20;;;3.90;;
70780;SDS011;59514;48.810;2.134;2022-07-24T12:36:04;3.90;;;3.25;;
70780;SDS011;59514;48.810;2.134;2022-07-24T12:38:34;3.13;;;2.92;;
70780;SDS011;59514;48.810;2.134;2022-07-24T12:41:14;3.28;;;3.05;;
70780;SDS011;59514;48.810;2.134;2022-07-24T12:48:55;3.42;;;3.17;;
70780;SDS011;59514;48.810;2.134;2022-07-24T12:51:25;3.03;;;2.70;;
70780;SDS011;59514;48.810;2.134;2022-07-24T12:53:54;3.33;;;3.13;;
70780;SDS011;59514;48.810;2.134;2022-07-24T12:56:20;4.35;;;3.40;;
70780;SDS011;59514;48.810;2.134;2022-07-24T13:01:15;3.58;;;3.28;;
70780;SDS011;59514;48.810;2.134;2022-07-24T13:03:41;3.28;;;3.00;;
70780;SDS011;59514;48.810;2.134;2022-07-24T13:06:08;3.42;;;3.13;;
70780;SDS011;59514;48.810;2.134;2022-07-24T13:08:34;3.35;;;3.15;;
70780;SDS011;59514;48.810;2.134;2022-07-24T13:10:59;3.42;;;3.22;;
70780;SDS011;59514;48.810;2.134;2022-07-24T13:13:25;3.42;;;3.13;;
70780;SDS011;59514;48.810;2.134;2022-07-24T13:15:50;3.20;;;3.00;;
70780;SDS011;59514;48.810;2.134;2022-07-24T13:18:15;3.50;;;3.30;;
70780;SDS011;59514;48.810;2.134;2022-07-24T13:20:41;3.30;;;3.08;;
70780;SDS011;59514;48.810;2.134;2022-07-24T13:23:06;3.90;;;3.60;;
70780;SDS011;59514;48.810;2.134;2022-07-24T13:25:31;3.90;;;3.57;;
70780;SDS011;59514;48.810;2.134;2022-07-24T13:27:57;3.08;;;2.80;;
70780;SDS011;59514;48.810;2.134;2022-07-24T13:30:22;3.10;;;2.90;;
70780;SDS011;59514;48.810;2.134;2022-07-24T13:32:48;3.90;;;3.58;;
70780;SDS011;59514;48.810;2.134;2022-07-24T13:35:13;3.72;;;3.33;;
70780;SDS011;59514;48.810;2.134;2022-07-24T13:37:39;3.60;;;3.40;;
70780;SDS011;59514;48.810;2.134;2022-07-24T13:40:04;3.20;;;3.00;;
70780;SDS011;59514;48.810;2.134;2022-07-24T13:42:31;3.40;;;3.20;;
70780;SDS011;59514;48.810;2.134;2022-07-24T13:44:57;3.60;;;3.35;;
70780;SDS011;59514;48.810;2.134;2022-07-24T13:47:23;3.30;;;3.10;;
70780;SDS011;59514;48.810;2.134;2022-07-24T13:49:48;3.50;;;3.30;;
70780;SDS011;59514;48.810;2.134;2022-07-24T13:52:14;3.65;;;3.35;;
70780;SDS011;59514;48.810;2.134;2022-07-24T13:54:40;3.40;;;3.13;;
70780;SDS011;59514;48.810;2.134;2022-07-24T13:57:06;3.58;;;3.28;;
70780;SDS011;59514;48.810;2.134;2022-07-24T13:59:32;3.25;;;3.05;;
70780;SDS011;59514;48.810;2.134;2022-07-24T14:01:58;3.55;;;3.25;;
70780;SDS011;59514;48.810;2.134;2022-07-24T14:04:23;3.80;;;3.50;;
70780;SDS011;59514;48.810;2.134;2022-07-24T14:06:48;3.10;;;2.90;;
70780;SDS011;59514;48.810;2.134;2022-07-24T14:09:14;2.85;;;2.65;;
70780;SDS011;59514;48.810;2.134;2022-07-24T14:11:39;3.53;;;3.22;;
70780;SDS011;59514;48.810;2.134;2022-07-24T14:14:06;3.60;;;3.30;;
70780;SDS011;59514;48.810;2.134;2022-07-24T14:16:31;3.40;;;3.10;;
70780;SDS011;59514;48.810;2.134;2022-07-24T14:18:57;3.65;;;3.35;;
70780;SDS011;59514;48.810;2.134;2022-07-24T14:21:22;3.33;;;3.13;;
70780;SDS011;59514;48.810;2.134;2022-07-24T14:23:47;4.57;;;3.40;;
70780;SDS011;59514;48.810;2.134;2022-07-24T14:26:13;3.33;;;3.13;;
70780;SDS011;59514;48.810;2.134;2022-07-24T14:28:38;3.40;;;3.10;;
70780;SDS011;59514;48.810;2.134;2022-07-24T14:31:03;3.50;;;3.30;;
70780;SDS011;59514;48.810;2.134;2022-07-24T14:33:29;3.47;;;3.17;;
70780;SDS011;59514;48.810;2.134;2022-07-24T14:35:54;3.42;;;3.20;;
70780;SDS011;59514;48.810;2.134;2022-07-24T14:38:20;3.63;;;3.33;;
70780;SDS011;59514;48.810;2.134;2022-07-24T14:40:45;3.33;;;3.13;;
70780;SDS011;59514;48.810;2.134;2022-07-24T14:43:10;3.60;;;3.30;;
70780;SDS011;59514;48.810;2.134;2022-07-24T14:45:36;3.20;;;3.00;;
70780;SDS011;59514;48.810;2.134;2022-07-24T14:48:02;3.13;;;2.92;;
70780;SDS011;59514;48.810;2.134;2022-07-24T14:50:27;3.90;;;3.55;;
70780;SDS011;59514;48.810;2.134;2022-07-24T14:52:53;3.97;;;3.67;;
70780;SDS011;59514;48.810;2.134;2022-07-24T14:55:18;3.10;;;2.90;;
70780;SDS011;59514;48.810;2.134;2022-07-24T14:57:43;3.38;;;3.13;;
70780;SDS011;59514;48.810;2.134;2022-07-24T15:00:09;4.10;;;3.80;;
70780;SDS011;59514;48.810;2.134;2022-07-24T15:02:35;3.47;;;3.22;;
70780;SDS011;59514;48.810;2.134;2022-07-24T15:05:01;4.68;;;3.83;;
70780;SDS011;59514;48.810;2.134;2022-07-24T15:07:26;3.80;;;3.50;;
70780;SDS011;59514;48.810;2.134;2022-07-24T15:09:51;4.20;;;3.90;;
70780;SDS011;59514;48.810;2.134;2022-07-24T15:12:17;4.72;;;3.53;;
70780;SDS011;59514;48.810;2.134;2022-07-24T15:14:42;3.83;;;3.53;;
70780;SDS011;59514;48.810;2.134;2022-07-24T15:17:08;3.47;;;3.28;;
70780;SDS011;59514;48.810;2.134;2022-07-24T15:19:33;3.58;;;3.30;;